Parkerford, Pennsylvania
Current Conditions -  °F | °C
As of 9:54 PM on Sunday 23 Nov 2014 (Local Time) from KPTW Reporting Station
Overcast Overcast  
Wind Chill: 45°   Ceiling: 4700
Heat Index: 47°   Visibility: 10mi
Dew Point: 37°   Wind: 5mph
Humidity: 68%   Direction: 90°E
Pressure: 30.01"   Gusts: NA
Location:  40.2094°N, 75.5919°W
Report Text: KPTW 240254Z AUTO 09004KT 10SM OVC047 08/03 A3001 RMK AO2 SLP160 T00830028 58031
Loading
Personal Weather Stations






























Interactive Weather Map New forecast layout! Learn more

10-Day Weather Forecast

Advertisements
Track Severe Weather on mobile